Accueil
METAR-TAF:

METAR-TAF

Aéroports :

Base aérienne 279 Châteaudun

Châteaudun, France

latitude: 48-03N, longitude: 001-23E, altitude: 134 m

Observation

Le bulletin a été fait il y a 40 minutes, à 06:00 UTC
Vent 7 kt de ouest/nord-ouest
Température 12°C
Humidité 88%
Pression 1012 hPa
Visibilité: 9000 m
pluie faible

METAR: LFOC 280600Z AUTO 30007KT 9000 -RA BKN019/// OVC026/// ///TCU 12/10 Q1012

Heure: 08:40 (06:40 UTC)

Prévision

Le bulletin a été fait il y a 53 minutes, à 05:47 UTC
Prévision valable du 28 à 06 UTC au 29 à 03 UTC
Vent 12 kt de nord-ouest
Visibilité: 7000 m
Nuages fragmentés à une hauteur de 1900 ft
Evoluant progressivement
du 28 à 19 UTC au 28 à 21 UTC
Vent 5 kt de ouest/sud-ouest

TAF: LFOC 280547Z 2806/2903 31012KT 7000 BKN019 BECMG 2819/2821 25005KT

Observations et prévisions météorologiques de plus de 4000 aéroports (messages METAR et TAF).

Les stations disponibles sont représentées par des disques jaunes et rouges sur la carte.

Passer la souris dessus pour voir le nom de la station.

Cliquer dessus pour voir les observations et prévisions météorologiques.

Pour changer de carte: cliquez sur les boutons verts avec une croix noire pour zoomer, sur le bouton vert avec un tiret pour effectuer un zoom arrière, ou sur les flèches vertes pour les cartes adjacentes.


METAR-TAF: